sensor_id;sensor_type;location;lat;lon;timestamp;pressure;altitude;pressure_sealevel;temperature;humidity
76108;BME280;64834;52.516;10.528;2022-12-31T00:01:18;99891.13;;;9.33;93.30
76108;BME280;64834;52.516;10.528;2022-12-31T00:03:44;99895.47;;;9.33;92.63
76108;BME280;64834;52.516;10.528;2022-12-31T00:08:44;99895.81;;;9.40;92.47
76108;BME280;64834;52.516;10.528;2022-12-31T00:11:10;99908.88;;;9.40;92.77
76108;BME280;64834;52.516;10.528;2022-12-31T00:13:35;99908.22;;;9.44;92.29
76108;BME280;64834;52.516;10.528;2022-12-31T00:16:05;99903.88;;;9.45;92.22
76108;BME280;64834;52.516;10.528;2022-12-31T00:18:31;99902.16;;;9.45;92.22
76108;BME280;64834;52.516;10.528;2022-12-31T00:20:56;99902.44;;;9.52;91.87
76108;BME280;64834;52.516;10.528;2022-12-31T00:23:21;99907.44;;;9.47;92.10
76108;BME280;64834;52.516;10.528;2022-12-31T00:25:47;99911.25;;;9.54;92.07
76108;BME280;64834;52.516;10.528;2022-12-31T00:28:12;99913.31;;;9.61;91.64
76108;BME280;64834;52.516;10.528;2022-12-31T00:30:37;99912.50;;;9.62;91.74
76108;BME280;64834;52.516;10.528;2022-12-31T00:33:02;99896.41;;;9.72;91.63
76108;BME280;64834;52.516;10.528;2022-12-31T00:35:28;99915.66;;;9.74;91.47
76108;BME280;64834;52.516;10.528;2022-12-31T00:37:53;99912.09;;;9.72;91.57
76108;BME280;64834;52.516;10.528;2022-12-31T00:40:18;99923.38;;;9.71;91.26
76108;BME280;64834;52.516;10.528;2022-12-31T00:42:44;99918.97;;;9.70;91.49
76108;BME280;64834;52.516;10.528;2022-12-31T00:45:09;99920.16;;;9.77;91.27
76108;BME280;64834;52.516;10.528;2022-12-31T00:47:34;99925.31;;;9.75;91.30
76108;BME280;64834;52.516;10.528;2022-12-31T00:50:00;99932.31;;;9.76;91.12
76108;BME280;64834;52.516;10.528;2022-12-31T00:52:25;99938.50;;;9.78;91.31
76108;BME280;64834;52.516;10.528;2022-12-31T00:54:50;99931.22;;;9.71;91.55
76108;BME280;64834;52.516;10.528;2022-12-31T00:57:16;99929.72;;;9.76;91.35
76108;BME280;64834;52.516;10.528;2022-12-31T00:59:41;99937.56;;;9.76;91.31
76108;BME280;64834;52.516;10.528;2022-12-31T01:02:06;99933.94;;;9.74;91.15
76108;BME280;64834;52.516;10.528;2022-12-31T01:04:32;99922.88;;;9.80;91.13
76108;BME280;64834;52.516;10.528;2022-12-31T01:06:57;99913.50;;;9.83;90.95
76108;BME280;64834;52.516;10.528;2022-12-31T01:09:22;99923.66;;;9.77;91.23
76108;BME280;64834;52.516;10.528;2022-12-31T01:11:49;99927.38;;;9.82;91.03
76108;BME280;64834;52.516;10.528;2022-12-31T01:14:16;99928.94;;;9.79;90.83
76108;BME280;64834;52.516;10.528;2022-12-31T01:16:50;99932.44;;;9.79;90.71
76108;BME280;64834;52.516;10.528;2022-12-31T01:19:22;99924.84;;;9.84;91.31
76108;BME280;64834;52.516;10.528;2022-12-31T01:21:48;99934.25;;;9.80;90.90
76108;BME280;64834;52.516;10.528;2022-12-31T01:24:14;99932.03;;;9.70;91.40
76108;BME280;64834;52.516;10.528;2022-12-31T01:26:40;99933.59;;;9.66;91.58
76108;BME280;64834;52.516;10.528;2022-12-31T01:29:07;99942.78;;;9.76;91.20
76108;BME280;64834;52.516;10.528;2022-12-31T01:31:33;99949.78;;;9.77;91.53
76108;BME280;64834;52.516;10.528;2022-12-31T01:33:58;99956.34;;;9.87;91.43
76108;BME280;64834;52.516;10.528;2022-12-31T01:36:26;99952.00;;;9.87;91.29
76108;BME280;64834;52.516;10.528;2022-12-31T01:38:54;99961.22;;;9.98;91.40
76108;BME280;64834;52.516;10.528;2022-12-31T01:41:23;99963.03;;;9.99;91.40
76108;BME280;64834;52.516;10.528;2022-12-31T01:49:12;99968.44;;;10.04;92.26
76108;BME280;64834;52.516;10.528;2022-12-31T01:51:42;99973.91;;;10.09;92.81
76108;BME280;64834;52.516;10.528;2022-12-31T01:54:11;99974.03;;;10.12;92.55
76108;BME280;64834;52.516;10.528;2022-12-31T01:56:40;99969.84;;;10.15;92.88
76108;BME280;64834;52.516;10.528;2022-12-31T01:59:08;99967.78;;;10.08;93.12
76108;BME280;64834;52.516;10.528;2022-12-31T02:01:36;99955.00;;;10.14;93.04
76108;BME280;64834;52.516;10.528;2022-12-31T02:04:06;99953.03;;;10.10;93.09
76108;BME280;64834;52.516;10.528;2022-12-31T02:06:37;99940.03;;;10.12;93.27
76108;BME280;64834;52.516;10.528;2022-12-31T02:09:04;99943.56;;;10.12;93.15
76108;BME280;64834;52.516;10.528;2022-12-31T02:11:32;99953.59;;;10.03;93.37
76108;BME280;64834;52.516;10.528;2022-12-31T02:14:03;99950.50;;;10.12;93.32
76108;BME280;64834;52.516;10.528;2022-12-31T02:19:58;99935.78;;;10.14;93.17
76108;BME280;64834;52.516;10.528;2022-12-31T02:25:55;99941.97;;;10.16;93.35
76108;BME280;64834;52.516;10.528;2022-12-31T02:28:45;99938.47;;;10.15;93.55
76108;BME280;64834;52.516;10.528;2022-12-31T02:31:23;99938.47;;;10.15;93.46
76108;BME280;64834;52.516;10.528;2022-12-31T02:33:55;99930.78;;;10.18;93.73
76108;BME280;64834;52.516;10.528;2022-12-31T02:36:28;99934.13;;;10.16;94.18
76108;BME280;64834;52.516;10.528;2022-12-31T02:38:56;99927.41;;;10.21;94.04
76108;BME280;64834;52.516;10.528;2022-12-31T02:41:22;99926.81;;;10.26;94.19
76108;BME280;64834;52.516;10.528;2022-12-31T02:44:35;99919.84;;;10.27;94.04
76108;BME280;64834;52.516;10.528;2022-12-31T02:52:51;99910.34;;;10.29;93.94
76108;BME280;64834;52.516;10.528;2022-12-31T02:58:13;99905.28;;;10.32;93.97
76108;BME280;64834;52.516;10.528;2022-12-31T03:00:47;99898.31;;;10.33;94.15
76108;BME280;64834;52.516;10.528;2022-12-31T03:03:33;99900.03;;;10.32;93.92
76108;BME280;64834;52.516;10.528;2022-12-31T03:06:01;99901.88;;;10.35;94.25
76108;BME280;64834;52.516;10.528;2022-12-31T03:08:27;99902.03;;;10.38;94.32
76108;BME280;64834;52.516;10.528;2022-12-31T03:10:52;99902.41;;;10.47;94.18
76108;BME280;64834;52.516;10.528;2022-12-31T03:13:17;99907.03;;;10.52;93.60
76108;BME280;64834;52.516;10.528;2022-12-31T03:15:42;99904.25;;;10.49;93.66
76108;BME280;64834;52.516;10.528;2022-12-31T03:18:11;99902.72;;;10.54;93.51
76108;BME280;64834;52.516;10.528;2022-12-31T03:20:42;99905.03;;;10.47;93.98
76108;BME280;64834;52.516;10.528;2022-12-31T03:23:29;99895.03;;;10.58;94.11
76108;BME280;64834;52.516;10.528;2022-12-31T03:25:56;99890.75;;;10.60;93.99
76108;BME280;64834;52.516;10.528;2022-12-31T03:28:24;99885.78;;;10.66;93.62
76108;BME280;64834;52.516;10.528;2022-12-31T03:30:52;99877.97;;;10.67;94.14
76108;BME280;64834;52.516;10.528;2022-12-31T03:33:19;99885.09;;;10.70;94.13
76108;BME280;64834;52.516;10.528;2022-12-31T03:35:46;99879.97;;;10.73;93.68
76108;BME280;64834;52.516;10.528;2022-12-31T03:38:11;99866.88;;;10.73;93.67
76108;BME280;64834;52.516;10.528;2022-12-31T03:40:42;99866.00;;;10.72;94.00
76108;BME280;64834;52.516;10.528;2022-12-31T03:43:08;99867.97;;;10.78;93.98
76108;BME280;64834;52.516;10.528;2022-12-31T03:45:34;99875.13;;;10.82;94.07
76108;BME280;64834;52.516;10.528;2022-12-31T03:48:00;99872.56;;;10.84;93.81
76108;BME280;64834;52.516;10.528;2022-12-31T03:50:26;99883.88;;;10.83;94.05
76108;BME280;64834;52.516;10.528;2022-12-31T03:52:51;99880.41;;;10.84;94.17
76108;BME280;64834;52.516;10.528;2022-12-31T03:55:17;99889.28;;;10.87;94.24
76108;BME280;64834;52.516;10.528;2022-12-31T03:57:42;99872.81;;;10.90;94.62
76108;BME280;64834;52.516;10.528;2022-12-31T04:00:11;99884.13;;;10.89;94.86
76108;BME280;64834;52.516;10.528;2022-12-31T04:02:36;99866.91;;;10.94;95.03
76108;BME280;64834;52.516;10.528;2022-12-31T04:05:02;99866.75;;;10.91;95.33
76108;BME280;64834;52.516;10.528;2022-12-31T04:07:28;99857.88;;;10.87;95.95
76108;BME280;64834;52.516;10.528;2022-12-31T04:09:53;99866.06;;;10.95;95.60
76108;BME280;64834;52.516;10.528;2022-12-31T04:12:18;99875.50;;;10.91;95.74
76108;BME280;64834;52.516;10.528;2022-12-31T04:14:43;99871.03;;;10.89;96.06
76108;BME280;64834;52.516;10.528;2022-12-31T04:17:09;99864.31;;;10.95;96.43
76108;BME280;64834;52.516;10.528;2022-12-31T04:19:34;99863.69;;;11.01;96.26
76108;BME280;64834;52.516;10.528;2022-12-31T04:21:59;99863.09;;;11.08;96.40
76108;BME280;64834;52.516;10.528;2022-12-31T04:24:25;99851.84;;;11.11;96.15
76108;BME280;64834;52.516;10.528;2022-12-31T04:26:50;99835.13;;;11.07;96.25
76108;BME280;64834;52.516;10.528;2022-12-31T04:29:16;99840.19;;;11.02;96.71
76108;BME280;64834;52.516;10.528;2022-12-31T04:31:41;99818.69;;;11.11;96.53
76108;BME280;64834;52.516;10.528;2022-12-31T04:34:06;99815.13;;;11.09;96.76
76108;BME280;64834;52.516;10.528;2022-12-31T04:36:32;99821.69;;;11.20;96.42
76108;BME280;64834;52.516;10.528;2022-12-31T04:38:57;99807.31;;;11.11;96.42
76108;BME280;64834;52.516;10.528;2022-12-31T04:41:22;99805.69;;;11.13;96.31
76108;BME280;64834;52.516;10.528;2022-12-31T04:43:53;99809.00;;;11.08;96.52
76108;BME280;64834;52.516;10.528;2022-12-31T04:46:22;99795.38;;;11.17;96.25
76108;BME280;64834;52.516;10.528;2022-12-31T04:48:47;99797.38;;;11.24;96.14
76108;BME280;64834;52.516;10.528;2022-12-31T04:51:13;99792.31;;;11.29;96.13
76108;BME280;64834;52.516;10.528;2022-12-31T04:53:39;99789.72;;;11.29;96.41
76108;BME280;64834;52.516;10.528;2022-12-31T04:56:05;99794.19;;;11.31;96.18
76108;BME280;64834;52.516;10.528;2022-12-31T04:58:31;99789.72;;;11.29;96.30
76108;BME280;64834;52.516;10.528;2022-12-31T05:00:56;99793.88;;;11.24;96.17
76108;BME280;64834;52.516;10.528;2022-12-31T05:03:24;99789.38;;;11.20;96.35
76108;BME280;64834;52.516;10.528;2022-12-31T05:05:50;99793.25;;;11.31;96.37
76108;BME280;64834;52.516;10.528;2022-12-31T05:08:16;99791.34;;;11.25;96.28
76108;BME280;64834;52.516;10.528;2022-12-31T05:10:46;99795.97;;;11.32;96.03
76108;BME280;64834;52.516;10.528;2022-12-31T05:13:12;99799.72;;;11.39;95.96
76108;BME280;64834;52.516;10.528;2022-12-31T05:15:38;99805.22;;;11.47;95.71
76108;BME280;64834;52.516;10.528;2022-12-31T05:18:04;99809.34;;;11.40;95.64
76108;BME280;64834;52.516;10.528;2022-12-31T05:20:29;99813.66;;;11.38;96.40
76108;BME280;64834;52.516;10.528;2022-12-31T05:22:55;99824.22;;;11.41;96.42
76108;BME280;64834;52.516;10.528;2022-12-31T05:25:20;99823.75;;;11.29;96.89
76108;BME280;64834;52.516;10.528;2022-12-31T05:27:46;99835.13;;;11.29;96.68
76108;BME280;64834;52.516;10.528;2022-12-31T05:30:11;99836.75;;;11.26;96.97
76108;BME280;64834;52.516;10.528;2022-12-31T05:32:37;99853.22;;;11.23;97.02
76108;BME280;64834;52.516;10.528;2022-12-31T05:35:03;99870.22;;;11.12;97.52
76108;BME280;64834;52.516;10.528;2022-12-31T05:37:29;99868.97;;;11.02;97.84
76108;BME280;64834;52.516;10.528;2022-12-31T05:39:56;99853.97;;;10.98;98.25
76108;BME280;64834;52.516;10.528;2022-12-31T05:42:21;99850.06;;;11.10;97.91
76108;BME280;64834;52.516;10.528;2022-12-31T05:44:47;99863.44;;;11.17;97.94
76108;BME280;64834;52.516;10.528;2022-12-31T05:47:12;99860.66;;;11.13;97.85
76108;BME280;64834;52.516;10.528;2022-12-31T05:49:38;99859.19;;;11.19;97.81
76108;BME280;64834;52.516;10.528;2022-12-31T05:52:03;99841.19;;;11.28;97.67
76108;BME280;64834;52.516;10.528;2022-12-31T05:54:28;99834.41;;;11.33;97.75
76108;BME280;64834;52.516;10.528;2022-12-31T05:56:54;99850.78;;;11.28;97.44
76108;BME280;64834;52.516;10.528;2022-12-31T05:59:20;99854.59;;;11.36;97.71
76108;BME280;64834;52.516;10.528;2022-12-31T06:01:46;99858.84;;;11.32;97.31
76108;BME280;64834;52.516;10.528;2022-12-31T06:04:11;99859.81;;;11.36;97.52
76108;BME280;64834;52.516;10.528;2022-12-31T06:06:36;99876.66;;;11.43;96.98
76108;BME280;64834;52.516;10.528;2022-12-31T06:09:02;99878.59;;;11.47;96.98
76108;BME280;64834;52.516;10.528;2022-12-31T06:11:27;99899.06;;;11.34;96.72
76108;BME280;64834;52.516;10.528;2022-12-31T06:13:53;99913.34;;;11.20;96.79
76108;BME280;64834;52.516;10.528;2022-12-31T06:16:18;99910.63;;;11.19;97.53
76108;BME280;64834;52.516;10.528;2022-12-31T06:18:46;99899.09;;;11.14;97.87
76108;BME280;64834;52.516;10.528;2022-12-31T06:21:11;99910.53;;;11.16;97.93
76108;BME280;64834;52.516;10.528;2022-12-31T06:23:39;99904.22;;;11.11;97.70
76108;BME280;64834;52.516;10.528;2022-12-31T06:26:04;99910.16;;;11.06;97.67
76108;BME280;64834;52.516;10.528;2022-12-31T06:28:31;99909.19;;;11.04;97.95
76108;BME280;64834;52.516;10.528;2022-12-31T06:31:05;99931.66;;;10.99;97.72
76108;BME280;64834;52.516;10.528;2022-12-31T06:33:30;99941.81;;;10.92;98.00
76108;BME280;64834;52.516;10.528;2022-12-31T06:35:57;99933.97;;;10.92;98.02
76108;BME280;64834;52.516;10.528;2022-12-31T06:38:24;99926.91;;;10.89;98.29
76108;BME280;64834;52.516;10.528;2022-12-31T06:40:50;99916.28;;;10.86;98.18
76108;BME280;64834;52.516;10.528;2022-12-31T06:43:15;99925.13;;;10.88;98.11
76108;BME280;64834;52.516;10.528;2022-12-31T06:45:41;99927.31;;;10.79;98.10
76108;BME280;64834;52.516;10.528;2022-12-31T06:48:06;99931.94;;;10.85;98.06
76108;BME280;64834;52.516;10.528;2022-12-31T06:50:31;99928.03;;;10.75;98.38
76108;BME280;64834;52.516;10.528;2022-12-31T06:52:57;99930.72;;;10.76;98.20
76108;BME280;64834;52.516;10.528;2022-12-31T06:55:22;99927.63;;;10.87;97.67
76108;BME280;64834;52.516;10.528;2022-12-31T06:57:48;99953.28;;;10.94;97.57
76108;BME280;64834;52.516;10.528;2022-12-31T07:00:14;99938.19;;;10.88;97.69
76108;BME280;64834;52.516;10.528;2022-12-31T07:02:58;99959.56;;;10.78;97.88
76108;BME280;64834;52.516;10.528;2022-12-31T07:05:38;99918.66;;;10.80;98.12
76108;BME280;64834;52.516;10.528;2022-12-31T07:11:08;99936.09;;;11.00;97.10
76108;BME280;64834;52.516;10.528;2022-12-31T07:13:48;99934.28;;;10.78;97.46
76108;BME280;64834;52.516;10.528;2022-12-31T07:16:35;99920.81;;;10.90;97.48
76108;BME280;64834;52.516;10.528;2022-12-31T07:19:21;99919.72;;;10.85;97.54
76108;BME280;64834;52.516;10.528;2022-12-31T07:21:48;99935.31;;;10.82;97.97
76108;BME280;64834;52.516;10.528;2022-12-31T07:24:15;99927.16;;;10.95;98.23
76108;BME280;64834;52.516;10.528;2022-12-31T07:26:50;99954.22;;;10.96;97.75
76108;BME280;64834;52.516;10.528;2022-12-31T07:32:16;99963.41;;;10.86;97.63
76108;BME280;64834;52.516;10.528;2022-12-31T07:37:57;99921.91;;;10.95;97.88
76108;BME280;64834;52.516;10.528;2022-12-31T07:40:44;99991.56;;;10.92;97.75
76108;BME280;64834;52.516;10.528;2022-12-31T07:46:12;99993.66;;;10.79;97.95
76108;BME280;64834;52.516;10.528;2022-12-31T07:48:41;99954.84;;;10.69;97.94
76108;BME280;64834;52.516;10.528;2022-12-31T07:51:08;99945.66;;;10.79;98.34
76108;BME280;64834;52.516;10.528;2022-12-31T07:53:34;99967.09;;;10.91;97.91
76108;BME280;64834;52.516;10.528;2022-12-31T07:56:00;99962.81;;;10.93;97.92
76108;BME280;64834;52.516;10.528;2022-12-31T08:01:10;99968.16;;;10.95;97.59
76108;BME280;64834;52.516;10.528;2022-12-31T08:06:25;99985.22;;;10.87;97.64
76108;BME280;64834;52.516;10.528;2022-12-31T08:09:07;99980.25;;;10.72;98.24
76108;BME280;64834;52.516;10.528;2022-12-31T08:11:53;99985.69;;;10.76;97.98
76108;BME280;64834;52.516;10.528;2022-12-31T08:14:19;100003.69;;;10.90;97.75
76108;BME280;64834;52.516;10.528;2022-12-31T08:16:45;99997.44;;;10.67;97.69
76108;BME280;64834;52.516;10.528;2022-12-31T08:21:51;100005.78;;;10.77;98.22
76108;BME280;64834;52.516;10.528;2022-12-31T08:24:56;100009.69;;;10.68;98.30
76108;BME280;64834;52.516;10.528;2022-12-31T08:27:44;100002.59;;;10.85;98.10
76108;BME280;64834;52.516;10.528;2022-12-31T08:30:14;100000.31;;;10.92;98.10
76108;BME280;64834;52.516;10.528;2022-12-31T08:33:27;99997.41;;;10.86;97.62
76108;BME280;64834;52.516;10.528;2022-12-31T08:38:36;100005.03;;;10.61;99.00
76108;BME280;64834;52.516;10.528;2022-12-31T08:41:28;100004.63;;;10.71;99.06
76108;BME280;64834;52.516;10.528;2022-12-31T08:47:08;100015.09;;;10.71;99.04
76108;BME280;64834;52.516;10.528;2022-12-31T08:49:36;100021.28;;;10.73;98.75
76108;BME280;64834;52.516;10.528;2022-12-31T08:52:02;100033.38;;;10.90;98.41
76108;BME280;64834;52.516;10.528;2022-12-31T08:54:28;100039.56;;;10.92;98.08
76108;BME280;64834;52.516;10.528;2022-12-31T08:57:08;100027.72;;;10.81;97.88
76108;BME280;64834;52.516;10.528;2022-12-31T08:59:53;100033.34;;;10.69;98.43
76108;BME280;64834;52.516;10.528;2022-12-31T09:02:35;100044.69;;;10.89;98.08
76108;BME280;64834;52.516;10.528;2022-12-31T09:05:15;100026.91;;;11.01;97.72
76108;BME280;64834;52.516;10.528;2022-12-31T09:10:26;100016.50;;;10.84;98.09
76108;BME280;64834;52.516;10.528;2022-12-31T09:15:37;100016.16;;;10.95;98.50
76108;BME280;64834;52.516;10.528;2022-12-31T09:18:07;100006.06;;;11.04;98.22
76108;BME280;64834;52.516;10.528;2022-12-31T09:20:34;100006.94;;;11.05;98.11
76108;BME280;64834;52.516;10.528;2022-12-31T09:23:00;100014.69;;;11.02;97.98
76108;BME280;64834;52.516;10.528;2022-12-31T09:25:26;100004.69;;;11.13;98.12
76108;BME280;64834;52.516;10.528;2022-12-31T09:28:14;100000.59;;;11.19;97.74
76108;BME280;64834;52.516;10.528;2022-12-31T09:36:06;99998.72;;;11.38;97.75
76108;BME280;64834;52.516;10.528;2022-12-31T09:38:42;99993.88;;;11.47;97.37
76108;BME280;64834;52.516;10.528;2022-12-31T09:41:53;99998.22;;;11.46;97.25
76108;BME280;64834;52.516;10.528;2022-12-31T09:44:41;100011.06;;;11.40;97.77
76108;BME280;64834;52.516;10.528;2022-12-31T09:47:33;99999.78;;;11.43;97.82
76108;BME280;64834;52.516;10.528;2022-12-31T09:53:17;99986.50;;;11.59;97.48
76108;BME280;64834;52.516;10.528;2022-12-31T09:55:55;99979.97;;;11.70;97.99
76108;BME280;64834;52.516;10.528;2022-12-31T09:58:41;99981.56;;;11.67;97.65
76108;BME280;64834;52.516;10.528;2022-12-31T10:01:22;99981.94;;;11.76;97.52
76108;BME280;64834;52.516;10.528;2022-12-31T10:06:23;99980.94;;;11.95;97.50
76108;BME280;64834;52.516;10.528;2022-12-31T10:09:28;99976.59;;;12.19;97.11
76108;BME280;64834;52.516;10.528;2022-12-31T10:15:29;99972.72;;;12.32;97.15
76108;BME280;64834;52.516;10.528;2022-12-31T10:18:27;99973.13;;;12.42;96.55
76108;BME280;64834;52.516;10.528;2022-12-31T10:21:12;99977.38;;;12.39;96.39
76108;BME280;64834;52.516;10.528;2022-12-31T10:32:13;99968.78;;;12.68;95.59
76108;BME280;64834;52.516;10.528;2022-12-31T10:35:00;99963.88;;;12.78;95.17
76108;BME280;64834;52.516;10.528;2022-12-31T10:37:27;99964.06;;;12.82;95.11
76108;BME280;64834;52.516;10.528;2022-12-31T10:42:43;99963.03;;;13.04;94.00
76108;BME280;64834;52.516;10.528;2022-12-31T10:48:36;99951.94;;;13.38;92.29
76108;BME280;64834;52.516;10.528;2022-12-31T10:54:18;99942.34;;;13.67;90.76
76108;BME280;64834;52.516;10.528;2022-12-31T10:57:18;99943.72;;;13.83;89.54
76108;BME280;64834;52.516;10.528;2022-12-31T11:00:18;99942.28;;;13.94;88.90
76108;BME280;64834;52.516;10.528;2022-12-31T11:05:48;99936.50;;;14.06;87.82
76108;BME280;64834;52.516;10.528;2022-12-31T11:12:03;99951.00;;;14.22;86.63
76108;BME280;64834;52.516;10.528;2022-12-31T11:15:10;99951.59;;;14.43;84.29
76108;BME280;64834;52.516;10.528;2022-12-31T11:21:33;99948.91;;;14.40;85.00
76108;BME280;64834;52.516;10.528;2022-12-31T11:24:01;99948.38;;;14.52;83.60
76108;BME280;64834;52.516;10.528;2022-12-31T11:26:45;99931.19;;;14.65;82.96
76108;BME280;64834;52.516;10.528;2022-12-31T11:29:38;99946.31;;;14.73;82.04
76108;BME280;64834;52.516;10.528;2022-12-31T11:35:22;99936.44;;;14.98;80.10
76108;BME280;64834;52.516;10.528;2022-12-31T11:38:27;99950.63;;;15.03;79.77
76108;BME280;64834;52.516;10.528;2022-12-31T11:41:34;99955.94;;;15.06;79.54
76108;BME280;64834;52.516;10.528;2022-12-31T11:47:07;99974.91;;;15.26;77.89
76108;BME280;64834;52.516;10.528;2022-12-31T11:52:16;99969.19;;;15.44;77.38
76108;BME280;64834;52.516;10.528;2022-12-31T11:55:01;100013.69;;;15.30;79.18
76108;BME280;64834;52.516;10.528;2022-12-31T11:57:35;100050.78;;;15.04;81.59
76108;BME280;64834;52.516;10.528;2022-12-31T12:00:14;100067.00;;;14.58;85.41
76108;BME280;64834;52.516;10.528;2022-12-31T12:02:49;100064.22;;;14.25;87.63
76108;BME280;64834;52.516;10.528;2022-12-31T12:05:18;100028.53;;;14.04;89.76
76108;BME280;64834;52.516;10.528;2022-12-31T12:07:46;100045.44;;;13.84;91.10
76108;BME280;64834;52.516;10.528;2022-12-31T12:10:31;100059.97;;;13.73;92.07
76108;BME280;64834;52.516;10.528;2022-12-31T12:13:29;100076.56;;;13.70;92.88
76108;BME280;64834;52.516;10.528;2022-12-31T12:15:57;100080.06;;;13.71;92.23
76108;BME280;64834;52.516;10.528;2022-12-31T12:18:26;100065.19;;;13.71;93.15
76108;BME280;64834;52.516;10.528;2022-12-31T12:20:52;100074.00;;;13.73;93.00
76108;BME280;64834;52.516;10.528;2022-12-31T12:23:21;100067.00;;;13.74;92.86
76108;BME280;64834;52.516;10.528;2022-12-31T12:25:48;100060.91;;;13.75;92.11
76108;BME280;64834;52.516;10.528;2022-12-31T12:28:17;100064.50;;;13.77;92.78
76108;BME280;64834;52.516;10.528;2022-12-31T12:30:45;100069.84;;;13.80;92.64
76108;BME280;64834;52.516;10.528;2022-12-31T12:33:15;100063.09;;;13.88;92.36
76108;BME280;64834;52.516;10.528;2022-12-31T12:35:40;100072.47;;;13.80;92.35
76108;BME280;64834;52.516;10.528;2022-12-31T12:38:13;100071.63;;;13.81;92.36
76108;BME280;64834;52.516;10.528;2022-12-31T12:40:39;100078.66;;;13.82;91.70
76108;BME280;64834;52.516;10.528;2022-12-31T12:43:05;100092.56;;;13.78;92.20
76108;BME280;64834;52.516;10.528;2022-12-31T12:45:44;100077.38;;;13.69;92.53
76108;BME280;64834;52.516;10.528;2022-12-31T12:48:23;100063.28;;;13.67;92.96
76108;BME280;64834;52.516;10.528;2022-12-31T12:50:50;100061.34;;;13.62;92.81
76108;BME280;64834;52.516;10.528;2022-12-31T12:53:32;100060.41;;;13.60;92.97
76108;BME280;64834;52.516;10.528;2022-12-31T13:02:07;100082.13;;;13.54;93.24
76108;BME280;64834;52.516;10.528;2022-12-31T13:07:36;100055.91;;;13.30;94.67
76108;BME280;64834;52.516;10.528;2022-12-31T13:13:16;100058.84;;;13.39;93.72
76108;BME280;64834;52.516;10.528;2022-12-31T13:15:55;100051.22;;;13.47;93.67
76108;BME280;64834;52.516;10.528;2022-12-31T13:18:35;100057.53;;;13.52;93.62
76108;BME280;64834;52.516;10.528;2022-12-31T13:21:29;100055.88;;;13.56;93.30
76108;BME280;64834;52.516;10.528;2022-12-31T13:27:03;100042.28;;;13.69;92.51
76108;BME280;64834;52.516;10.528;2022-12-31T13:29:33;100037.88;;;13.68;92.03
76108;BME280;64834;52.516;10.528;2022-12-31T13:32:01;100052.16;;;13.76;91.87
76108;BME280;64834;52.516;10.528;2022-12-31T13:34:31;100038.25;;;13.79;91.51
76108;BME280;64834;52.516;10.528;2022-12-31T13:37:04;100045.44;;;13.84;90.82
76108;BME280;64834;52.516;10.528;2022-12-31T13:39:36;100041.50;;;13.98;89.40
76108;BME280;64834;52.516;10.528;2022-12-31T13:42:04;100054.00;;;14.06;88.71
76108;BME280;64834;52.516;10.528;2022-12-31T13:44:48;100045.66;;;14.20;87.36
76108;BME280;64834;52.516;10.528;2022-12-31T13:47:40;100048.81;;;14.37;85.37
76108;BME280;64834;52.516;10.528;2022-12-31T13:50:54;100053.78;;;14.55;84.40
76108;BME280;64834;52.516;10.528;2022-12-31T13:53:25;100059.53;;;14.72;82.80
76108;BME280;64834;52.516;10.528;2022-12-31T13:55:56;100051.75;;;14.76;82.46
76108;BME280;64834;52.516;10.528;2022-12-31T13:58:34;100045.00;;;14.86;81.35
76108;BME280;64834;52.516;10.528;2022-12-31T14:04:11;100048.50;;;14.85;81.50
76108;BME280;64834;52.516;10.528;2022-12-31T14:09:28;100052.19;;;14.92;80.93
76108;BME280;64834;52.516;10.528;2022-12-31T14:12:25;100068.38;;;15.05;79.18
76108;BME280;64834;52.516;10.528;2022-12-31T14:17:50;100078.22;;;15.13;79.48
76108;BME280;64834;52.516;10.528;2022-12-31T14:20:28;100073.31;;;15.26;78.50
76108;BME280;64834;52.516;10.528;2022-12-31T14:22:59;100087.38;;;15.27;78.03
76108;BME280;64834;52.516;10.528;2022-12-31T14:25:38;100074.97;;;15.21;78.92
76108;BME280;64834;52.516;10.528;2022-12-31T14:28:13;100079.13;;;15.13;79.11
76108;BME280;64834;52.516;10.528;2022-12-31T14:30:43;100087.13;;;15.16;78.97
76108;BME280;64834;52.516;10.528;2022-12-31T14:33:18;100088.16;;;15.21;78.63
76108;BME280;64834;52.516;10.528;2022-12-31T14:35:58;100077.69;;;15.26;78.41
76108;BME280;64834;52.516;10.528;2022-12-31T14:38:35;100084.91;;;15.33;77.85
76108;BME280;64834;52.516;10.528;2022-12-31T14:44:08;100067.31;;;15.32;77.76
76108;BME280;64834;52.516;10.528;2022-12-31T14:52:29;100061.50;;;15.10;78.25
76108;BME280;64834;52.516;10.528;2022-12-31T14:57:39;100079.03;;;15.10;77.64
76108;BME280;64834;52.516;10.528;2022-12-31T15:00:50;100079.28;;;15.19;77.24
76108;BME280;64834;52.516;10.528;2022-12-31T15:06:09;100080.31;;;15.24;76.43
76108;BME280;64834;52.516;10.528;2022-12-31T15:11:56;100118.84;;;15.21;77.19
76108;BME280;64834;52.516;10.528;2022-12-31T15:17:32;100107.13;;;15.41;75.66
76108;BME280;64834;52.516;10.528;2022-12-31T15:20:30;100114.03;;;15.37;76.21
76108;BME280;64834;52.516;10.528;2022-12-31T15:23:01;100112.28;;;15.36;75.76
76108;BME280;64834;52.516;10.528;2022-12-31T15:25:31;100136.22;;;15.46;75.45
76108;BME280;64834;52.516;10.528;2022-12-31T15:27:59;100126.72;;;15.52;74.66
76108;BME280;64834;52.516;10.528;2022-12-31T15:32:56;100141.28;;;15.68;74.18
76108;BME280;64834;52.516;10.528;2022-12-31T15:35:29;100145.66;;;15.68;74.24
76108;BME280;64834;52.516;10.528;2022-12-31T15:38:02;100152.53;;;15.62;74.52
76108;BME280;64834;52.516;10.528;2022-12-31T15:40:28;100135.28;;;15.75;73.90
76108;BME280;64834;52.516;10.528;2022-12-31T15:43:16;100151.81;;;15.68;74.17
76108;BME280;64834;52.516;10.528;2022-12-31T15:45:45;100132.13;;;15.57;75.05